createdAt,value
2019-01-14T00:00:18.359Z,1000.31
2019-01-14T00:01:28.075Z,1000.36
2019-01-14T00:02:36.991Z,1000.44
2019-01-14T00:03:46.421Z,1000.42
2019-01-14T00:04:55.800Z,1000.42
2019-01-14T00:06:10.061Z,1000.37
2019-01-14T00:07:19.244Z,1000.35
2019-01-14T00:08:28.678Z,1000.38
2019-01-14T00:09:38.399Z,1000.44
2019-01-14T00:10:47.403Z,1000.46
2019-01-14T00:11:56.597Z,1000.5
2019-01-14T00:13:05.820Z,1000.46
2019-01-14T00:14:15.011Z,1000.61
2019-01-14T00:15:23.946Z,1000.55
2019-01-14T00:16:33.134Z,1000.58
2019-01-14T00:17:42.093Z,1000.57
2019-01-14T00:18:51.276Z,1000.57
2019-01-14T00:20:00.763Z,1000.58
2019-01-14T00:21:10.204Z,1000.51
2019-01-14T00:22:19.370Z,1000.58
2019-01-14T00:23:28.571Z,1000.54
2019-01-14T00:24:37.746Z,1000.49
2019-01-14T00:25:46.423Z,1000.44
2019-01-14T00:26:56.099Z,1000.34
2019-01-14T00:28:05.549Z,1000.41
2019-01-14T00:29:14.503Z,1000.58
2019-01-14T00:30:23.956Z,1000.54
2019-01-14T00:31:33.138Z,1000.48
2019-01-14T00:32:42.329Z,1000.5
2019-01-14T00:33:51.499Z,1000.59
2019-01-14T00:35:01.210Z,1000.67
2019-01-14T00:36:17.224Z,1000.57
2019-01-14T00:37:26.570Z,1000.74
2019-01-14T00:38:35.999Z,1000.82
2019-01-14T00:39:45.454Z,1000.86
2019-01-14T00:40:54.404Z,1000.93
2019-01-14T00:42:03.343Z,1001
2019-01-14T00:43:12.775Z,1001.06
2019-01-14T00:44:21.700Z,1001.06
2019-01-14T00:45:31.124Z,1001.07
2019-01-14T00:46:40.543Z,1001.16
2019-01-14T00:47:49.744Z,1001.11
2019-01-14T00:48:59.417Z,1001.17
2019-01-14T00:50:08.599Z,1001.24
2019-01-14T00:51:17.777Z,1001.28
2019-01-14T00:52:27.247Z,1001.39
2019-01-14T00:53:36.958Z,1001.56
2019-01-14T00:54:45.904Z,1001.61
2019-01-14T00:55:55.334Z,1001.53
2019-01-14T00:57:04.556Z,1001.49
2019-01-14T00:58:13.751Z,1001.45
2019-01-14T00:59:23.219Z,1001.46
2019-01-14T01:00:32.682Z,1001.53
2019-01-14T01:01:42.134Z,1001.61
2019-01-14T01:02:51.563Z,1001.69
2019-01-14T01:04:00.485Z,1001.65
2019-01-14T01:05:09.697Z,1001.61
2019-01-14T01:06:24.537Z,1001.52
2019-01-14T01:07:34.010Z,1001.58
2019-01-14T01:08:43.465Z,1001.6
2019-01-14T01:09:52.635Z,1001.58
2019-01-14T01:11:01.552Z,1001.39
2019-01-14T01:12:10.240Z,1001.34
2019-01-14T01:13:19.442Z,1001.38
2019-01-14T01:14:28.378Z,1001.38
2019-01-14T01:15:37.580Z,1001.36
2019-01-14T01:16:47.033Z,1001.3
2019-01-14T01:17:56.212Z,1001.28
2019-01-14T01:19:05.645Z,1001.31
2019-01-14T01:20:15.314Z,1001.3
2019-01-14T01:21:24.498Z,1001.38
2019-01-14T01:22:33.704Z,1001.44
2019-01-14T01:23:43.115Z,1001.41
2019-01-14T01:24:52.312Z,1001.43
2019-01-14T01:26:01.513Z,1001.5
2019-01-14T01:27:10.451Z,1001.46
2019-01-14T01:28:20.393Z,1001.51
2019-01-14T01:29:29.802Z,1001.5
2019-01-14T01:30:39.592Z,1001.45
2019-01-14T01:31:48.263Z,1001.53
2019-01-14T01:32:57.456Z,1001.56
2019-01-14T01:34:06.901Z,1001.59
2019-01-14T01:35:16.083Z,1001.56
2019-01-14T01:36:31.658Z,1001.52
2019-01-14T01:37:41.039Z,1001.56
2019-01-14T01:38:50.489Z,1001.55
2019-01-14T01:39:59.928Z,1001.55
2019-01-14T01:41:08.884Z,1001.56
2019-01-14T01:42:18.072Z,1001.61
2019-01-14T01:43:27.020Z,1001.59
2019-01-14T01:44:36.455Z,1001.65
2019-01-14T01:45:45.370Z,1001.65
2019-01-14T01:46:54.555Z,1001.72
2019-01-14T01:48:03.490Z,1001.75
2019-01-14T01:49:12.422Z,1001.73
2019-01-14T01:50:22.095Z,1001.76
2019-01-14T01:51:31.541Z,1001.77
2019-01-14T01:52:40.720Z,1001.84
2019-01-14T01:53:49.892Z,1001.76
2019-01-14T01:54:59.561Z,1001.85
2019-01-14T01:56:08.732Z,1001.83
2019-01-14T01:57:17.656Z,1001.83
2019-01-14T01:58:27.106Z,1001.9
2019-01-14T01:59:36.544Z,1001.91
2019-01-14T02:00:45.717Z,1001.88
2019-01-14T02:01:55.155Z,1001.88
2019-01-14T02:03:04.336Z,1001.96
2019-01-14T02:04:13.511Z,1001.91
2019-01-14T02:05:22.716Z,1001.99
2019-01-14T02:06:38.966Z,1002.04
2019-01-14T02:07:48.789Z,1002.08
2019-01-14T02:08:58.710Z,1002.15
2019-01-14T02:10:08.135Z,1002.16
2019-01-14T02:11:16.834Z,1002.15
2019-01-14T02:12:25.786Z,1002.18
2019-01-14T02:13:35.468Z,1002.22
2019-01-14T02:14:44.390Z,1002.18
2019-01-14T02:15:53.636Z,1002.22
2019-01-14T02:17:03.311Z,1002.24
2019-01-14T02:18:12.493Z,1002.21
2019-01-14T02:19:21.677Z,1002.22
2019-01-14T02:20:31.140Z,1002.26
2019-01-14T02:21:40.322Z,1002.3
2019-01-14T02:22:49.504Z,1002.29
2019-01-14T02:23:58.939Z,1002.29
2019-01-14T02:25:08.373Z,1002.23
2019-01-14T02:26:17.054Z,1002.3
2019-01-14T02:27:26.244Z,1002.31
2019-01-14T02:28:35.419Z,1002.28
2019-01-14T02:29:44.351Z,1002.27
2019-01-14T02:30:54.129Z,1002.27
2019-01-14T02:32:03.329Z,1002.25
2019-01-14T02:33:13.266Z,1002.35
2019-01-14T02:34:22.448Z,1002.24
2019-01-14T02:35:31.868Z,1002.32
2019-01-14T02:36:48.310Z,1002.28
2019-01-14T02:37:57.950Z,1002.35
2019-01-14T02:39:06.626Z,1002.33
2019-01-14T02:40:16.311Z,1002.37
2019-01-14T02:41:26.016Z,1002.35
2019-01-14T02:42:35.699Z,1002.39
2019-01-14T02:43:45.367Z,1002.38
2019-01-14T02:44:55.286Z,1002.4
2019-01-14T02:46:04.718Z,1002.4
2019-01-14T02:47:14.398Z,1002.44
2019-01-14T02:48:23.646Z,1002.47
2019-01-14T02:49:33.064Z,1002.47
2019-01-14T02:50:42.326Z,1002.47
2019-01-14T02:51:51.532Z,1002.54
2019-01-14T02:53:00.974Z,1002.52
2019-01-14T02:54:10.464Z,1002.53
2019-01-14T02:55:19.928Z,1002.56
2019-01-14T02:56:29.140Z,1002.53
2019-01-14T02:57:38.830Z,1002.54
2019-01-14T02:58:48.291Z,1002.55
2019-01-14T02:59:57.478Z,1002.46
2019-01-14T03:01:06.682Z,1002.54
2019-01-14T03:02:16.130Z,1002.55
2019-01-14T03:03:25.811Z,1002.58
2019-01-14T03:04:34.983Z,1002.56
2019-01-14T03:05:44.432Z,1002.55
2019-01-14T03:06:57.832Z,1002.54
2019-01-14T03:08:06.941Z,1002.59
2019-01-14T03:09:16.378Z,1002.57
2019-01-14T03:10:25.822Z,1002.57
2019-01-14T03:11:35.034Z,1002.55
2019-01-14T03:12:44.487Z,1002.48
2019-01-14T03:13:53.696Z,1002.58
2019-01-14T03:15:03.388Z,1002.64
2019-01-14T03:16:12.333Z,1002.7
2019-01-14T03:17:21.529Z,1002.74
2019-01-14T03:18:30.965Z,1002.73
2019-01-14T03:19:39.642Z,1002.74
2019-01-14T03:20:49.333Z,1002.77
2019-01-14T03:21:58.503Z,1002.73
2019-01-14T03:23:08.207Z,1002.65
2019-01-14T03:24:17.916Z,1002.7
2019-01-14T03:25:27.610Z,1002.73
2019-01-14T03:26:37.332Z,1002.76
2019-01-14T03:27:46.267Z,1002.8
2019-01-14T03:28:56.210Z,1002.79
2019-01-14T03:30:05.642Z,1002.84
2019-01-14T03:31:15.732Z,1002.82
2019-01-14T03:32:25.585Z,1002.92
2019-01-14T03:33:35.345Z,1002.84
2019-01-14T03:34:44.531Z,1002.83
2019-01-14T03:35:53.474Z,1002.86
2019-01-14T03:37:05.509Z,1002.83
2019-01-14T03:38:14.945Z,1002.88
2019-01-14T03:39:24.641Z,1002.89
2019-01-14T03:40:34.340Z,1002.94
2019-01-14T03:41:43.787Z,1002.99
2019-01-14T03:42:52.994Z,1003.07
2019-01-14T03:44:02.173Z,1003.06
2019-01-14T03:45:11.343Z,1003.11
2019-01-14T03:46:20.039Z,1003.12
2019-01-14T03:47:29.230Z,1003.07
2019-01-14T03:48:38.419Z,1003.06
2019-01-14T03:49:47.852Z,1003.02
2019-01-14T03:50:56.779Z,1002.99
2019-01-14T03:52:05.983Z,1002.97
2019-01-14T03:53:15.439Z,1002.99
2019-01-14T03:54:24.371Z,1002.98
2019-01-14T03:55:34.065Z,1003
2019-01-14T03:56:43.514Z,1003.07
2019-01-14T03:57:53.469Z,1003.05
2019-01-14T03:59:02.163Z,1003.05
2019-01-14T04:00:11.859Z,1003.03
2019-01-14T04:01:21.308Z,1003.09
2019-01-14T04:02:30.242Z,1003.09
2019-01-14T04:03:39.423Z,1003.06
2019-01-14T04:04:48.851Z,1003.04
2019-01-14T04:05:58.280Z,1003.06
2019-01-14T04:07:13.463Z,1003.02
2019-01-14T04:08:23.468Z,1003.08
2019-01-14T04:09:33.177Z,1003.09
2019-01-14T04:10:42.362Z,1003.07
2019-01-14T04:11:52.307Z,1003.08
2019-01-14T04:13:01.737Z,1003.14
2019-01-14T04:14:11.188Z,1003.11
2019-01-14T04:15:20.893Z,1003.19
2019-01-14T04:16:30.077Z,1003.18
2019-01-14T04:17:39.531Z,1003.17
2019-01-14T04:18:48.969Z,1003.22
2019-01-14T04:19:58.420Z,1003.19
2019-01-14T04:21:08.341Z,1003.13
2019-01-14T04:22:18.278Z,1003.12
2019-01-14T04:23:27.974Z,1003.24
2019-01-14T04:24:37.418Z,1003.27
2019-01-14T04:25:47.110Z,1003.33
2019-01-14T04:26:56.537Z,1003.28
2019-01-14T04:28:06.489Z,1003.29
2019-01-14T04:29:15.925Z,1003.31
2019-01-14T04:30:25.391Z,1003.33
2019-01-14T04:31:34.859Z,1003.32
2019-01-14T04:32:44.053Z,1003.29
2019-01-14T04:33:53.519Z,1003.28
2019-01-14T04:35:02.448Z,1003.37
2019-01-14T04:36:11.671Z,1003.38
2019-01-14T04:37:21.735Z,1003.34
2019-01-14T04:38:31.062Z,1003.36
2019-01-14T04:39:40.490Z,1003.37
2019-01-14T04:40:50.181Z,1003.37
2019-01-14T04:41:59.617Z,1003.37
2019-01-14T04:43:08.818Z,1003.4
2019-01-14T04:44:17.750Z,1003.34
2019-01-14T04:45:27.685Z,1003.36
2019-01-14T04:46:37.195Z,1003.35
2019-01-14T04:47:46.390Z,1003.41
2019-01-14T04:48:55.329Z,1003.43
2019-01-14T04:50:04.772Z,1003.39
2019-01-14T04:51:14.559Z,1003.49
2019-01-14T04:52:23.251Z,1003.47
2019-01-14T04:53:33.215Z,1003.46
2019-01-14T04:54:42.158Z,1003.44
2019-01-14T04:55:51.378Z,1003.51
2019-01-14T04:57:01.287Z,1003.57
2019-01-14T04:58:10.718Z,1003.5
2019-01-14T04:59:20.664Z,1003.57
2019-01-14T05:00:29.870Z,1003.56
2019-01-14T05:01:39.657Z,1003.58
2019-01-14T05:02:48.835Z,1003.56
2019-01-14T05:03:58.511Z,1003.55
2019-01-14T05:05:07.953Z,1003.59
2019-01-14T05:06:17.263Z,1003.58
2019-01-14T05:07:29.594Z,1003.63
2019-01-14T05:08:39.338Z,1003.67
2019-01-14T05:09:48.767Z,1003.65
2019-01-14T05:10:58.456Z,1003.66
2019-01-14T05:12:07.661Z,1003.73
2019-01-14T05:13:16.915Z,1003.74
2019-01-14T05:14:26.357Z,1003.76
2019-01-14T05:15:37.056Z,1003.75
2019-01-14T05:16:46.638Z,1003.74
2019-01-14T05:17:56.112Z,1003.72
2019-01-14T05:19:05.570Z,1003.75
2019-01-14T05:20:14.787Z,1003.77
2019-01-14T05:21:24.469Z,1003.78
2019-01-14T05:22:34.146Z,1003.81
2019-01-14T05:23:43.571Z,1003.83
2019-01-14T05:24:52.592Z,1003.82
2019-01-14T05:26:02.053Z,1003.83
2019-01-14T05:27:11.764Z,1003.82
2019-01-14T05:28:21.203Z,1003.92
2019-01-14T05:29:30.408Z,1003.9
2019-01-14T05:30:40.090Z,1003.91
2019-01-14T05:31:50.045Z,1003.95
2019-01-14T05:32:59.222Z,1003.93
2019-01-14T05:34:08.464Z,1003.99
2019-01-14T05:35:18.175Z,1003.95
2019-01-14T05:36:27.619Z,1003.97
2019-01-14T05:37:38.023Z,1003.96
2019-01-14T05:38:47.353Z,1003.91
2019-01-14T05:39:57.038Z,1003.95
2019-01-14T05:41:06.474Z,1003.97
2019-01-14T05:42:16.161Z,1003.93
2019-01-14T05:43:25.727Z,1003.91
2019-01-14T05:44:34.898Z,1003.93
2019-01-14T05:45:44.577Z,1003.91
2019-01-14T05:46:53.521Z,1003.86
2019-01-14T05:48:02.975Z,1003.9
2019-01-14T05:49:12.665Z,1003.96
2019-01-14T05:50:21.853Z,1004.02
2019-01-14T05:51:31.029Z,1004.08
2019-01-14T05:52:40.708Z,1004.12
2019-01-14T05:53:50.831Z,1004.06
2019-01-14T05:55:00.278Z,1004.13
2019-01-14T05:56:09.704Z,1004.12
2019-01-14T05:57:19.153Z,1004.08
2019-01-14T05:58:28.078Z,1004.19
2019-01-14T05:59:37.258Z,1004.19
2019-01-14T06:00:46.684Z,1004.23
2019-01-14T06:01:55.622Z,1004.25
2019-01-14T06:03:05.044Z,1004.25
2019-01-14T06:04:14.476Z,1004.28
2019-01-14T06:05:23.412Z,1004.27
2019-01-14T06:06:32.867Z,1004.31
2019-01-14T06:07:44.925Z,1004.32
2019-01-14T06:08:54.349Z,1004.34
2019-01-14T06:10:03.275Z,1004.38
2019-01-14T06:11:11.967Z,1004.41
2019-01-14T06:12:21.677Z,1004.39
2019-01-14T06:13:31.356Z,1004.38
2019-01-14T06:14:40.585Z,1004.4
2019-01-14T06:15:50.520Z,1004.39
2019-01-14T06:17:00.241Z,1004.4
2019-01-14T06:18:09.420Z,1004.41
2019-01-14T06:19:18.852Z,1004.42
2019-01-14T06:20:28.296Z,1004.44
2019-01-14T06:21:37.216Z,1004.48
2019-01-14T06:22:47.267Z,1004.51
2019-01-14T06:23:56.203Z,1004.51
2019-01-14T06:25:05.401Z,1004.53
2019-01-14T06:26:15.104Z,1004.62
2019-01-14T06:27:24.284Z,1004.61
2019-01-14T06:28:33.714Z,1004.66
2019-01-14T06:29:42.671Z,1004.7
2019-01-14T06:30:52.105Z,1004.71
2019-01-14T06:32:01.027Z,1004.71
2019-01-14T06:33:11.004Z,1004.72
2019-01-14T06:34:20.177Z,1004.71
2019-01-14T06:35:29.864Z,1004.7
2019-01-14T06:36:39.293Z,1004.74
2019-01-14T06:37:52.391Z,1004.7
2019-01-14T06:39:01.639Z,1004.74
2019-01-14T06:40:11.060Z,1004.73
2019-01-14T06:41:20.252Z,1004.75
2019-01-14T06:42:29.172Z,1004.78
2019-01-14T06:43:38.367Z,1004.75
2019-01-14T06:44:47.586Z,1004.7
2019-01-14T06:45:56.755Z,1004.69
2019-01-14T06:47:06.436Z,1004.63
2019-01-14T06:48:15.621Z,1004.73
2019-01-14T06:49:25.040Z,1004.74
2019-01-14T06:50:34.219Z,1004.77
2019-01-14T06:51:43.396Z,1004.74
2019-01-14T06:52:52.844Z,1004.74
2019-01-14T06:54:01.779Z,1004.74
2019-01-14T06:55:10.977Z,1004.82
2019-01-14T06:56:20.695Z,1004.84
2019-01-14T06:57:30.690Z,1004.93
2019-01-14T06:58:40.650Z,1004.94
2019-01-14T06:59:50.111Z,1004.99
2019-01-14T07:00:59.836Z,1005.07
2019-01-14T07:02:09.285Z,1005.08
2019-01-14T07:03:18.723Z,1005.09
2019-01-14T07:04:28.193Z,1005.19
2019-01-14T07:05:37.627Z,1005.09
2019-01-14T07:06:47.561Z,1005.17
2019-01-14T07:07:59.631Z,1005.23
2019-01-14T07:09:09.129Z,1005.29
2019-01-14T07:10:18.825Z,1005.22
2019-01-14T07:11:28.503Z,1005.36
2019-01-14T07:12:37.681Z,1005.35
2019-01-14T07:13:47.371Z,1005.32
2019-01-14T07:14:56.792Z,1005.34
2019-01-14T07:16:05.978Z,1005.33
2019-01-14T07:17:15.411Z,1005.36
2019-01-14T07:18:25.086Z,1005.35
2019-01-14T07:19:34.284Z,1005.38
2019-01-14T07:20:43.236Z,1005.42
2019-01-14T07:21:52.834Z,1005.35
2019-01-14T07:23:02.526Z,1005.4
2019-01-14T07:24:13.562Z,1005.37
2019-01-14T07:25:23.000Z,1005.38
2019-01-14T07:26:32.453Z,1005.45
2019-01-14T07:27:41.894Z,1005.5
2019-01-14T07:28:50.853Z,1005.49
2019-01-14T07:29:59.785Z,1005.48
2019-01-14T07:31:09.749Z,1005.49
2019-01-14T07:32:19.443Z,1005.47
2019-01-14T07:33:28.622Z,1005.49
2019-01-14T07:34:37.827Z,1005.54
2019-01-14T07:35:47.547Z,1005.56
2019-01-14T07:36:56.987Z,1005.58
2019-01-14T07:38:06.801Z,1005.62
2019-01-14T07:39:16.305Z,1005.6
2019-01-14T07:40:25.741Z,1005.6
2019-01-14T07:41:35.418Z,1005.61
2019-01-14T07:42:44.634Z,1005.65
2019-01-14T07:43:54.310Z,1005.63
2019-01-14T07:45:03.762Z,1005.71
2019-01-14T07:46:12.719Z,1005.68
2019-01-14T07:47:21.674Z,1005.69
2019-01-14T07:48:30.610Z,1005.73
2019-01-14T07:49:40.060Z,1005.75
2019-01-14T07:50:49.244Z,1005.71
2019-01-14T07:51:58.418Z,1005.79
2019-01-14T07:53:07.608Z,1005.76
2019-01-14T07:54:16.794Z,1005.82
2019-01-14T07:55:26.233Z,1005.87
2019-01-14T07:56:35.675Z,1005.86
2019-01-14T07:57:44.614Z,1005.92
2019-01-14T07:58:54.314Z,1005.94
2019-01-14T08:00:03.517Z,1005.98
2019-01-14T08:01:12.960Z,1005.99
2019-01-14T08:02:22.381Z,1006.03
2019-01-14T08:03:32.124Z,1005.99
2019-01-14T08:04:41.550Z,1006.02
2019-01-14T08:05:50.975Z,1006.16
2019-01-14T08:07:00.146Z,1006.14
2019-01-14T08:08:13.889Z,1006.11
2019-01-14T08:09:23.572Z,1006.17
2019-01-14T08:10:32.257Z,1006.22
2019-01-14T08:11:41.480Z,1006.27
2019-01-14T08:12:50.656Z,1006.28
2019-01-14T08:14:01.092Z,1006.37
2019-01-14T08:15:10.529Z,1006.47
2019-01-14T08:16:19.988Z,1006.51
2019-01-14T08:17:29.153Z,1006.58
2019-01-14T08:18:38.080Z,1006.61
2019-01-14T08:19:47.769Z,1006.65
2019-01-14T08:20:57.215Z,1006.66
2019-01-14T08:22:06.408Z,1006.71
2019-01-14T08:23:15.577Z,1006.66
2019-01-14T08:24:24.494Z,1006.75
2019-01-14T08:25:33.929Z,1006.78
2019-01-14T08:26:44.611Z,1006.75
2019-01-14T08:27:54.336Z,1006.74
2019-01-14T08:29:03.278Z,1006.81
2019-01-14T08:30:12.228Z,1006.86
2019-01-14T08:31:21.156Z,1006.89
2019-01-14T08:32:30.373Z,1006.89
2019-01-14T08:33:39.546Z,1006.92
2019-01-14T08:34:48.984Z,1006.92
2019-01-14T08:35:58.176Z,1006.94
2019-01-14T08:37:08.441Z,1007.01
2019-01-14T08:38:21.255Z,1007.03
2019-01-14T08:39:30.850Z,1007.1
2019-01-14T08:40:40.068Z,1007.14
2019-01-14T08:41:49.247Z,1007.24
2019-01-14T08:42:58.699Z,1007.28
2019-01-14T08:44:07.391Z,1007.31
2019-01-14T08:45:16.839Z,1007.39
2019-01-14T08:46:26.034Z,1007.37
2019-01-14T08:47:35.469Z,1007.37
2019-01-14T08:48:48.739Z,1007.34
2019-01-14T08:49:58.336Z,1007.38
2019-01-14T08:51:07.544Z,1007.41
2019-01-14T08:52:17.219Z,1007.45
2019-01-14T08:53:26.898Z,1007.52
2019-01-14T08:54:36.826Z,1007.54
2019-01-14T08:55:46.272Z,1007.6
2019-01-14T08:56:55.451Z,1007.71
2019-01-14T08:58:04.892Z,1007.82
2019-01-14T08:59:14.350Z,1007.72
2019-01-14T09:00:24.285Z,1007.86
2019-01-14T09:01:33.725Z,1007.76
2019-01-14T09:02:42.946Z,1007.83
2019-01-14T09:03:52.517Z,1007.85
2019-01-14T09:05:01.745Z,1007.77
2019-01-14T09:06:11.177Z,1007.84
2019-01-14T09:07:20.864Z,1007.81
2019-01-14T09:08:30.549Z,1007.82
2019-01-14T09:09:39.995Z,1007.85
2019-01-14T09:10:49.438Z,1007.85
2019-01-14T09:11:58.887Z,1007.89
2019-01-14T09:13:08.314Z,1007.93
2019-01-14T09:14:17.513Z,1007.85
2019-01-14T09:15:26.720Z,1007.84
2019-01-14T09:16:35.655Z,1007.86
2019-01-14T09:17:45.360Z,1007.89
2019-01-14T09:18:54.610Z,1007.93
2019-01-14T09:20:03.787Z,1008
2019-01-14T09:21:13.489Z,1008
2019-01-14T09:22:22.947Z,1008.03
2019-01-14T09:23:32.384Z,1008.06
2019-01-14T09:24:41.572Z,1008.05
2019-01-14T09:25:53.833Z,1008.06
2019-01-14T09:27:03.301Z,1008.05
2019-01-14T09:28:12.245Z,1008.05
2019-01-14T09:29:21.431Z,1007.98
2019-01-14T09:30:30.852Z,1008
2019-01-14T09:31:40.031Z,1008.01
2019-01-14T09:32:49.496Z,1008.05
2019-01-14T09:33:58.712Z,1008.05
2019-01-14T09:35:07.906Z,1007.99
2019-01-14T09:36:17.348Z,1007.98
2019-01-14T09:37:27.269Z,1008
2019-01-14T09:38:36.474Z,1007.97
2019-01-14T09:39:45.430Z,1007.96
2019-01-14T09:40:54.869Z,1007.95
2019-01-14T09:42:04.599Z,1008
2019-01-14T09:43:13.526Z,1007.99
2019-01-14T09:44:22.448Z,1008.01
2019-01-14T09:45:31.666Z,1008.01
2019-01-14T09:46:41.342Z,1008.05
2019-01-14T09:47:51.037Z,1008.03
2019-01-14T09:49:00.233Z,1008.01
2019-01-14T09:50:09.680Z,1007.99
2019-01-14T09:51:18.887Z,1008.02
2019-01-14T09:52:28.495Z,1008.02
2019-01-14T09:53:37.803Z,1008.05
2019-01-14T09:54:46.985Z,1008.03
2019-01-14T09:55:56.168Z,1008.07
2019-01-14T09:57:05.352Z,1008.11
2019-01-14T09:58:14.614Z,1008.14
2019-01-14T09:59:23.790Z,1008.14
2019-01-14T10:00:33.250Z,1008.16
2019-01-14T10:01:42.468Z,1008.18
2019-01-14T10:02:55.486Z,1008.21
2019-01-14T10:04:04.863Z,1008.22
2019-01-14T10:05:13.800Z,1008.27
2019-01-14T10:06:23.516Z,1008.29
2019-01-14T10:07:32.974Z,1008.33
2019-01-14T10:08:43.116Z,1008.34
2019-01-14T10:09:52.494Z,1008.36
2019-01-14T10:11:02.006Z,1008.37
2019-01-14T10:12:11.214Z,1008.44
2019-01-14T10:13:20.905Z,1008.46
2019-01-14T10:14:30.108Z,1008.42
2019-01-14T10:15:39.040Z,1008.45
2019-01-14T10:16:48.715Z,1008.51
2019-01-14T10:17:57.890Z,1008.51
2019-01-14T10:19:07.894Z,1008.54
2019-01-14T10:20:17.328Z,1008.59
2019-01-14T10:21:26.541Z,1008.6
2019-01-14T10:22:36.604Z,1008.57
2019-01-14T10:23:45.801Z,1008.61
2019-01-14T10:24:55.511Z,1008.6
2019-01-14T10:26:05.213Z,1008.59
2019-01-14T10:27:14.391Z,1008.6
2019-01-14T10:28:23.609Z,1008.59
2019-01-14T10:29:32.789Z,1008.64
2019-01-14T10:30:42.237Z,1008.66
2019-01-14T10:31:51.432Z,1008.63
2019-01-14T10:33:00.629Z,1008.68
2019-01-14T10:34:10.074Z,1008.66
2019-01-14T10:35:19.284Z,1008.7
2019-01-14T10:36:28.487Z,1008.72
2019-01-14T10:37:37.940Z,1008.77
2019-01-14T10:38:50.386Z,1008.71
2019-01-14T10:39:59.784Z,1008.78
2019-01-14T10:41:08.974Z,1008.77
2019-01-14T10:42:18.408Z,1008.82
2019-01-14T10:43:27.324Z,1008.85
2019-01-14T10:44:37.015Z,1008.85
2019-01-14T10:45:45.716Z,1008.86
2019-01-14T10:46:54.919Z,1008.83
2019-01-14T10:48:04.637Z,1008.83
2019-01-14T10:49:13.813Z,1008.91
2019-01-14T10:50:23.230Z,1008.96
2019-01-14T10:51:32.426Z,1008.92
2019-01-14T10:52:41.363Z,1008.98
2019-01-14T10:53:51.075Z,1008.98
2019-01-14T10:55:00.755Z,1008.96
2019-01-14T10:56:16.918Z,1008.96
2019-01-14T10:57:26.345Z,1008.93
2019-01-14T10:58:35.839Z,1008.98
2019-01-14T10:59:45.079Z,1008.98
2019-01-14T11:00:54.258Z,1008.99
2019-01-14T11:02:03.690Z,1009.02
2019-01-14T11:03:12.380Z,1008.96
2019-01-14T11:04:21.312Z,1008.96
2019-01-14T11:05:30.514Z,1009.04
2019-01-14T11:06:40.024Z,1009.01
2019-01-14T11:07:49.742Z,1009.02
2019-01-14T11:09:05.621Z,1009.05
2019-01-14T11:10:15.273Z,1009.02
2019-01-14T11:11:24.470Z,1008.96
2019-01-14T11:12:33.902Z,1008.98
2019-01-14T11:13:43.613Z,1008.95
2019-01-14T11:14:52.813Z,1008.95
2019-01-14T11:16:05.810Z,1008.9
2019-01-14T11:17:15.010Z,1009
2019-01-14T11:18:24.464Z,1008.94
2019-01-14T11:19:33.392Z,1008.94
2019-01-14T11:20:42.836Z,1009.07
2019-01-14T11:21:52.069Z,1009.06
2019-01-14T11:23:01.265Z,1009.1
2019-01-14T11:24:10.253Z,1009.16
2019-01-14T11:25:19.213Z,1009.35
2019-01-14T11:26:28.168Z,1009.66
2019-01-14T11:27:36.851Z,1009.56
2019-01-14T11:28:46.027Z,1009.42
2019-01-14T11:29:55.246Z,1009.56
2019-01-14T11:31:04.168Z,1009.6
2019-01-14T11:32:12.870Z,1009.75
2019-01-14T11:33:22.573Z,1009.62
2019-01-14T11:34:32.270Z,1009.57
2019-01-14T11:35:41.445Z,1009.56
2019-01-14T11:36:50.616Z,1009.53
2019-01-14T11:38:00.333Z,1009.55
2019-01-14T11:39:10.028Z,1009.47
2019-01-14T11:40:18.957Z,1009.55
2019-01-14T11:41:27.687Z,1009.53
2019-01-14T11:42:36.863Z,1009.47
2019-01-14T11:43:46.052Z,1009.48
2019-01-14T11:44:55.254Z,1009.46
2019-01-14T11:46:03.941Z,1009.53
2019-01-14T11:47:12.891Z,1009.52
2019-01-14T11:48:22.592Z,1009.57
2019-01-14T11:49:31.296Z,1009.55
2019-01-14T11:50:40.488Z,1009.6
2019-01-14T11:51:49.684Z,1009.62
2019-01-14T11:52:58.619Z,1009.66
2019-01-14T11:54:07.635Z,1009.61
2019-01-14T11:55:16.839Z,1009.56
2019-01-14T11:56:26.293Z,1009.67
2019-01-14T11:57:35.248Z,1009.66
2019-01-14T11:58:44.196Z,1009.7
2019-01-14T11:59:53.380Z,1009.68
2019-01-14T12:01:02.821Z,1009.61
2019-01-14T12:02:12.265Z,1009.61
2019-01-14T12:03:21.205Z,1009.57
2019-01-14T12:04:30.386Z,1009.6
2019-01-14T12:05:39.848Z,1009.62
2019-01-14T12:06:49.058Z,1009.61
2019-01-14T12:07:57.990Z,1009.62
2019-01-14T12:09:12.145Z,1009.63
2019-01-14T12:10:21.562Z,1009.62
2019-01-14T12:11:31.255Z,1009.61
2019-01-14T12:12:40.473Z,1009.58
2019-01-14T12:13:49.414Z,1009.58
2019-01-14T12:14:58.592Z,1009.57
2019-01-14T12:16:07.815Z,1009.57
2019-01-14T12:17:17.508Z,1009.62
2019-01-14T12:18:26.688Z,1009.63
2019-01-14T12:19:36.172Z,1009.66
2019-01-14T12:20:45.631Z,1009.72
2019-01-14T12:21:54.834Z,1009.69
2019-01-14T12:23:04.054Z,1009.67
2019-01-14T12:24:13.007Z,1009.76
2019-01-14T12:25:22.208Z,1009.78
2019-01-14T12:26:31.909Z,1009.86
2019-01-14T12:27:41.128Z,1009.93
2019-01-14T12:28:50.068Z,1009.96
2019-01-14T12:29:59.532Z,1010
2019-01-14T12:31:08.738Z,1010.01
2019-01-14T12:32:18.001Z,1010.06
2019-01-14T12:33:27.179Z,1010
2019-01-14T12:34:36.120Z,1010.09
2019-01-14T12:35:45.573Z,1010.04
2019-01-14T12:36:54.814Z,1009.89
2019-01-14T12:38:04.241Z,1009.97
2019-01-14T12:39:19.385Z,1009.98
2019-01-14T12:40:29.427Z,1009.97
2019-01-14T12:41:38.377Z,1010.07
2019-01-14T12:42:53.936Z,1010.08
2019-01-14T12:44:03.627Z,1010.02
2019-01-14T12:45:13.050Z,1010.1
2019-01-14T12:46:22.479Z,1010.12
2019-01-14T12:47:31.431Z,1010.09
2019-01-14T12:48:40.640Z,1010.1
2019-01-14T12:49:50.324Z,1010.13
2019-01-14T12:51:00.032Z,1010.1
2019-01-14T12:52:09.714Z,1010.05
2019-01-14T12:53:19.389Z,1010.14
2019-01-14T12:54:28.577Z,1010.08
2019-01-14T12:55:37.802Z,1010.12
2019-01-14T12:56:47.005Z,1010.1
2019-01-14T12:57:56.202Z,1010.03
2019-01-14T12:59:05.389Z,1010
2019-01-14T13:00:14.814Z,1009.98
2019-01-14T13:01:24.243Z,1010
2019-01-14T13:02:33.676Z,1010
2019-01-14T13:03:42.856Z,1009.96
2019-01-14T13:04:52.305Z,1009.99
2019-01-14T13:06:01.585Z,1009.98
2019-01-14T13:07:10.548Z,1009.99
2019-01-14T13:08:19.730Z,1009.94
2019-01-14T13:09:29.207Z,1010.07
2019-01-14T13:10:39.059Z,1010.04
2019-01-14T13:11:48.039Z,1010.05
2019-01-14T13:12:56.761Z,1010.06
2019-01-14T13:14:06.452Z,1010.06
2019-01-14T13:15:15.412Z,1010.08
2019-01-14T13:16:25.393Z,1010.01
2019-01-14T13:17:34.597Z,1010.01
2019-01-14T13:18:43.557Z,1009.97
2019-01-14T13:19:52.262Z,1009.97
2019-01-14T13:21:01.942Z,1010.01
2019-01-14T13:22:11.870Z,1010.04
2019-01-14T13:23:21.056Z,1010.03
2019-01-14T13:24:34.670Z,1009.99
2019-01-14T13:25:43.608Z,1009.96
2019-01-14T13:26:53.292Z,1009.94
2019-01-14T13:28:02.481Z,1010.02
2019-01-14T13:29:15.215Z,1009.92
2019-01-14T13:30:25.718Z,1009.97
2019-01-14T13:31:34.647Z,1010.03
2019-01-14T13:32:43.580Z,1010.01
2019-01-14T13:33:52.247Z,1010.08
2019-01-14T13:35:01.446Z,1010.15
2019-01-14T13:36:10.626Z,1010.26
2019-01-14T13:37:19.576Z,1010.27
2019-01-14T13:38:28.784Z,1010.3
2019-01-14T13:39:38.255Z,1010.42
2019-01-14T13:40:53.017Z,1010.59
2019-01-14T13:42:03.598Z,1011.02
2019-01-14T13:43:12.808Z,1010.95
2019-01-14T13:44:22.239Z,1011.07
2019-01-14T13:45:31.418Z,1011.03
2019-01-14T13:46:40.643Z,1011.08
2019-01-14T13:47:50.087Z,1011
2019-01-14T13:48:59.051Z,1011.03
2019-01-14T13:50:07.754Z,1010.89
2019-01-14T13:51:17.268Z,1010.82
2019-01-14T13:52:26.618Z,1010.79
2019-01-14T13:53:35.285Z,1010.8
2019-01-14T13:54:44.225Z,1010.85
2019-01-14T13:55:59.362Z,1010.91
2019-01-14T13:57:08.461Z,1010.93
2019-01-14T13:58:17.748Z,1010.96
2019-01-14T13:59:26.950Z,1010.98
2019-01-14T14:00:36.386Z,1011.1
2019-01-14T14:01:45.563Z,1011.08
2019-01-14T14:02:55.315Z,1011.13
2019-01-14T14:04:04.266Z,1011.16